createdAt,value
2022-10-26T00:01:23.963Z,19.10
2022-10-26T00:03:52.596Z,13.98
2022-10-26T00:06:22.801Z,14.53
2022-10-26T00:08:51.509Z,15.63
2022-10-26T00:11:20.028Z,20.60
2022-10-26T00:13:48.612Z,17.38
2022-10-26T00:16:27.035Z,16.65
2022-10-26T00:18:55.485Z,18.97
2022-10-26T00:21:23.473Z,16.45
2022-10-26T00:23:51.632Z,13.43
2022-10-26T00:26:19.498Z,16.70
2022-10-26T00:28:47.862Z,13.35
2022-10-26T00:31:17.086Z,19.23
2022-10-26T00:33:45.329Z,12.02
2022-10-26T00:36:18.520Z,20.10
2022-10-26T00:38:51.930Z,14.63
2022-10-26T00:41:23.595Z,14.63
2022-10-26T00:43:52.793Z,14.80
2022-10-26T00:46:30.583Z,17.93
2022-10-26T00:49:14.938Z,13.68
2022-10-26T00:51:48.450Z,13.73
2022-10-26T00:54:21.544Z,12.25
2022-10-26T00:56:54.905Z,11.60
2022-10-26T00:59:24.007Z,16.63
2022-10-26T01:01:52.892Z,13.45
2022-10-26T01:04:21.174Z,14.13
2022-10-26T01:06:49.982Z,15.43
2022-10-26T01:09:21.170Z,21.27
2022-10-26T01:11:49.304Z,18.53
2022-10-26T01:14:20.459Z,15.02
2022-10-26T01:17:09.986Z,16.05
2022-10-26T01:20:14.751Z,14.60
2022-10-26T01:23:02.204Z,15.93
2022-10-26T01:26:02.400Z,14.57
2022-10-26T01:28:33.031Z,15.82
2022-10-26T01:31:03.526Z,13.82
2022-10-26T01:33:33.911Z,12.57
2022-10-26T01:36:08.625Z,12.05
2022-10-26T01:38:53.906Z,10.67
2022-10-26T01:41:35.036Z,14.38
2022-10-26T01:44:11.632Z,14.57
2022-10-26T01:46:44.627Z,15.68
2022-10-26T01:49:15.317Z,14.00
2022-10-26T01:51:46.081Z,12.17
2022-10-26T01:54:14.438Z,15.45
2022-10-26T01:56:45.710Z,17.70
2022-10-26T01:59:16.700Z,13.82
2022-10-26T02:01:53.301Z,14.32
2022-10-26T02:04:39.217Z,14.23
2022-10-26T02:07:19.857Z,11.73
2022-10-26T02:10:05.611Z,13.35
2022-10-26T02:12:57.721Z,17.10
2022-10-26T02:15:35.096Z,12.38
2022-10-26T02:18:09.008Z,15.70
2022-10-26T02:20:45.899Z,17.20
2022-10-26T02:23:15.518Z,13.75
2022-10-26T02:25:49.652Z,21.75
2022-10-26T02:28:25.252Z,18.13
2022-10-26T02:30:57.418Z,15.90
2022-10-26T02:33:28.279Z,16.77
2022-10-26T02:36:03.437Z,18.20
2022-10-26T02:38:35.260Z,14.85
2022-10-26T02:41:05.454Z,12.98
2022-10-26T02:43:39.395Z,12.67
2022-10-26T02:46:12.838Z,15.98
2022-10-26T02:48:42.208Z,13.45
2022-10-26T02:51:17.942Z,13.00
2022-10-26T02:53:52.265Z,15.60
2022-10-26T02:56:29.546Z,12.87
2022-10-26T02:59:04.064Z,18.67
2022-10-26T03:01:34.732Z,20.90
2022-10-26T03:04:03.489Z,21.30
2022-10-26T03:06:31.529Z,19.02
2022-10-26T03:09:00.201Z,16.10
2022-10-26T03:11:28.422Z,17.40
2022-10-26T03:13:57.036Z,16.33
2022-10-26T03:16:26.444Z,19.45
2022-10-26T03:18:55.046Z,16.17
2022-10-26T03:21:23.399Z,19.93
2022-10-26T03:23:51.859Z,13.57
2022-10-26T03:26:20.434Z,17.50
2022-10-26T03:28:48.880Z,14.25
2022-10-26T03:31:17.250Z,18.05
2022-10-26T03:33:45.393Z,13.60
2022-10-26T03:36:13.525Z,19.08
2022-10-26T03:38:41.947Z,18.30
2022-10-26T03:41:10.004Z,16.48
2022-10-26T03:43:38.029Z,11.95
2022-10-26T03:46:07.386Z,20.57
2022-10-26T03:48:35.743Z,17.42
2022-10-26T03:51:03.586Z,15.10
2022-10-26T03:53:31.945Z,18.33
2022-10-26T03:56:00.125Z,13.63
2022-10-26T03:58:28.694Z,23.23
2022-10-26T04:00:56.956Z,18.00
2022-10-26T04:03:25.543Z,13.90
2022-10-26T04:05:53.917Z,14.57
2022-10-26T04:08:22.236Z,14.13
2022-10-26T04:10:50.370Z,15.23
2022-10-26T04:13:18.894Z,17.33
2022-10-26T04:15:47.205Z,11.27
2022-10-26T04:18:15.538Z,13.98
2022-10-26T04:20:43.685Z,14.02
2022-10-26T04:23:17.449Z,15.38
2022-10-26T04:25:46.385Z,15.53
2022-10-26T04:28:15.203Z,14.82
2022-10-26T04:30:43.692Z,15.23
2022-10-26T04:33:11.813Z,15.55
2022-10-26T04:35:40.455Z,19.48
2022-10-26T04:38:08.889Z,16.17
2022-10-26T04:40:36.979Z,20.30
2022-10-26T04:43:05.181Z,14.20
2022-10-26T04:45:35.092Z,13.50
2022-10-26T04:48:10.968Z,15.95
2022-10-26T04:50:40.193Z,12.93
2022-10-26T04:53:09.323Z,18.15
2022-10-26T04:55:37.874Z,15.02
2022-10-26T04:58:06.675Z,13.63
2022-10-26T05:00:35.526Z,14.10
2022-10-26T05:03:05.262Z,15.70
2022-10-26T05:05:35.188Z,17.05
2022-10-26T05:08:03.787Z,20.15
2022-10-26T05:10:32.127Z,14.68
2022-10-26T05:13:01.073Z,13.85
2022-10-26T05:15:29.281Z,20.80
2022-10-26T05:17:58.958Z,16.83
2022-10-26T05:20:29.934Z,15.50
2022-10-26T05:23:02.648Z,16.90
2022-10-26T05:25:32.441Z,16.65
2022-10-26T05:28:02.231Z,17.13
2022-10-26T05:30:31.327Z,15.55
2022-10-26T05:33:02.593Z,18.35
2022-10-26T05:35:31.724Z,15.27
2022-10-26T05:37:59.962Z,10.27
2022-10-26T05:40:28.296Z,16.97
2022-10-26T05:43:04.075Z,15.90
2022-10-26T05:45:32.674Z,12.95
2022-10-26T05:48:02.848Z,18.00
2022-10-26T05:50:32.049Z,20.42
2022-10-26T05:53:00.295Z,17.17
2022-10-26T05:55:29.166Z,19.05
2022-10-26T05:57:57.722Z,19.73
2022-10-26T06:00:28.337Z,16.65
2022-10-26T06:03:23.879Z,21.20
2022-10-26T06:05:57.711Z,17.33
2022-10-26T06:08:30.279Z,18.37
2022-10-26T06:11:03.480Z,16.00
2022-10-26T06:13:32.032Z,20.33
2022-10-26T06:16:43.350Z,25.20
2022-10-26T06:19:29.285Z,37.53
2022-10-26T06:22:11.972Z,19.33
2022-10-26T06:25:15.483Z,20.20
2022-10-26T06:28:33.715Z,19.05
2022-10-26T06:31:02.173Z,18.98
2022-10-26T06:33:30.993Z,15.75
2022-10-26T06:36:21.613Z,16.50
2022-10-26T06:39:00.394Z,21.08
2022-10-26T06:41:31.621Z,14.55
2022-10-26T06:44:00.318Z,23.38
2022-10-26T06:46:44.510Z,20.38
2022-10-26T06:49:31.987Z,21.43
2022-10-26T06:52:23.152Z,19.25
2022-10-26T06:54:53.497Z,16.05
2022-10-26T06:57:28.517Z,15.30
2022-10-26T07:00:05.274Z,15.93
2022-10-26T07:02:33.694Z,15.90
2022-10-26T07:05:02.078Z,20.25
2022-10-26T07:07:31.836Z,15.07
2022-10-26T07:10:00.045Z,16.05
2022-10-26T07:12:32.175Z,19.05
2022-10-26T07:15:01.668Z,19.43
2022-10-26T07:17:31.006Z,13.57
2022-10-26T07:19:59.262Z,13.10
2022-10-26T07:22:27.320Z,11.27
2022-10-26T07:24:57.072Z,14.95
2022-10-26T07:27:30.423Z,17.77
2022-10-26T07:29:58.415Z,17.77
2022-10-26T07:32:26.447Z,12.18
2022-10-26T07:34:54.794Z,14.88
2022-10-26T07:37:22.618Z,12.27
2022-10-26T07:39:56.534Z,17.95
2022-10-26T07:42:25.774Z,15.13
2022-10-26T07:44:53.763Z,15.38
2022-10-26T07:47:22.447Z,17.00
2022-10-26T07:49:50.422Z,20.45
2022-10-26T07:52:21.393Z,16.50
2022-10-26T07:54:49.541Z,18.57
2022-10-26T07:57:18.047Z,22.15
2022-10-26T07:59:46.201Z,14.75
2022-10-26T08:02:14.177Z,17.95
2022-10-26T08:04:42.303Z,16.17
2022-10-26T08:07:11.666Z,20.80
2022-10-26T08:09:40.089Z,13.82
2022-10-26T08:12:08.075Z,19.73
2022-10-26T08:14:36.139Z,25.45
2022-10-26T08:17:04.263Z,14.63
2022-10-26T08:19:32.238Z,21.47
2022-10-26T08:22:00.260Z,24.63
2022-10-26T08:24:28.306Z,18.90
2022-10-26T08:26:56.400Z,22.55
2022-10-26T08:29:27.508Z,12.27
2022-10-26T08:31:57.421Z,18.43
2022-10-26T08:34:25.402Z,19.30
2022-10-26T08:36:53.329Z,22.73
2022-10-26T08:39:21.700Z,24.02
2022-10-26T08:41:55.202Z,24.30
2022-10-26T08:44:36.657Z,17.92
2022-10-26T08:47:12.862Z,30.27
2022-10-26T08:50:07.662Z,22.52
2022-10-26T08:53:05.003Z,14.65
2022-10-26T08:58:18.177Z,18.05
2022-10-26T09:00:50.456Z,18.30
2022-10-26T09:03:19.518Z,18.98
2022-10-26T09:05:50.239Z,17.27
2022-10-26T09:08:32.008Z,20.35
2022-10-26T09:11:25.393Z,25.08
2022-10-26T09:14:14.247Z,24.30
2022-10-26T09:16:48.408Z,30.55
2022-10-26T09:20:03.168Z,18.90
2022-10-26T09:22:41.714Z,19.92
2022-10-26T09:25:24.224Z,13.57
2022-10-26T09:27:59.371Z,21.47
2022-10-26T09:30:27.601Z,21.58
2022-10-26T09:33:19.442Z,17.80
2022-10-26T09:36:01.856Z,17.58
2022-10-26T09:38:33.138Z,21.20
2022-10-26T09:41:13.354Z,17.17
2022-10-26T09:43:51.212Z,16.50
2022-10-26T09:46:41.428Z,18.40
2022-10-26T09:49:14.639Z,21.42
2022-10-26T09:51:46.670Z,18.52
2022-10-26T09:54:17.868Z,21.63
2022-10-26T09:56:52.788Z,16.77
2022-10-26T09:59:24.881Z,18.60
2022-10-26T10:01:52.934Z,18.50
2022-10-26T10:04:23.371Z,17.90
2022-10-26T10:06:54.152Z,14.47
2022-10-26T10:09:23.683Z,20.52
2022-10-26T10:12:04.223Z,24.63
2022-10-26T10:14:41.120Z,21.08
2022-10-26T10:17:20.809Z,20.05
2022-10-26T10:19:49.531Z,23.80
2022-10-26T10:22:20.188Z,17.75
2022-10-26T10:25:02.626Z,18.20
2022-10-26T10:27:33.748Z,18.67
2022-10-26T10:30:23.581Z,20.63
2022-10-26T10:33:13.346Z,21.77
2022-10-26T10:35:51.297Z,17.92
2022-10-26T10:38:22.270Z,19.90
2022-10-26T10:41:00.091Z,24.83
2022-10-26T10:43:28.913Z,16.35
2022-10-26T10:46:00.122Z,19.43
2022-10-26T10:48:29.788Z,21.60
2022-10-26T10:51:03.150Z,24.27
2022-10-26T10:53:49.759Z,18.42
2022-10-26T10:56:42.874Z,15.80
2022-10-26T10:59:32.398Z,16.17
2022-10-26T11:02:30.617Z,17.88
2022-10-26T11:05:23.299Z,17.65
2022-10-26T11:08:07.951Z,19.80
2022-10-26T11:10:41.278Z,16.20
2022-10-26T11:13:28.511Z,21.47
2022-10-26T11:16:19.706Z,15.88
2022-10-26T11:19:14.183Z,19.67
2022-10-26T11:21:45.019Z,13.23
2022-10-26T11:24:28.679Z,16.17
2022-10-26T11:27:17.885Z,20.37
2022-10-26T11:30:04.121Z,17.25
2022-10-26T11:32:45.288Z,18.58
2022-10-26T11:35:32.153Z,15.88
2022-10-26T11:38:10.767Z,21.77
2022-10-26T11:41:07.155Z,19.50
2022-10-26T11:43:43.116Z,18.80
2022-10-26T11:46:29.082Z,15.18
2022-10-26T11:49:12.302Z,19.00
2022-10-26T11:52:03.669Z,15.65
2022-10-26T11:54:40.475Z,16.80
2022-10-26T11:57:11.301Z,24.63
2022-10-26T11:59:46.642Z,17.90
2022-10-26T12:02:26.073Z,20.88
2022-10-26T12:05:05.926Z,22.58
2022-10-26T12:07:38.778Z,20.30
2022-10-26T12:10:23.808Z,14.88
2022-10-26T12:12:56.820Z,18.23
2022-10-26T12:18:54.650Z,17.08
2022-10-26T12:21:29.484Z,19.40
2022-10-26T12:24:01.782Z,19.33
2022-10-26T12:26:29.857Z,14.93
2022-10-26T12:29:04.078Z,19.60
2022-10-26T12:31:37.957Z,18.92
2022-10-26T12:34:14.741Z,15.50
2022-10-26T12:37:12.223Z,16.80
2022-10-26T12:39:42.713Z,19.70
2022-10-26T12:42:10.626Z,17.38
2022-10-26T12:44:48.810Z,18.90
2022-10-26T12:47:49.592Z,16.43
2022-10-26T12:50:25.843Z,18.63
2022-10-26T12:53:04.840Z,15.38
2022-10-26T12:55:50.592Z,17.77
2022-10-26T12:58:21.585Z,19.38
2022-10-26T13:01:45.195Z,18.90
2022-10-26T13:04:32.192Z,23.33
2022-10-26T13:07:19.246Z,18.15
2022-10-26T13:09:57.068Z,18.52
2022-10-26T13:12:27.392Z,18.75
2022-10-26T13:15:06.694Z,19.53
2022-10-26T13:17:36.029Z,18.65
2022-10-26T13:20:06.747Z,15.35
2022-10-26T13:22:46.001Z,16.40
2022-10-26T13:25:40.401Z,15.18
2022-10-26T13:28:32.821Z,17.27
2022-10-26T13:31:01.043Z,23.38
2022-10-26T13:33:38.428Z,15.43
2022-10-26T13:36:24.340Z,17.90
2022-10-26T13:38:53.002Z,23.40
2022-10-26T13:41:37.094Z,16.17
2022-10-26T13:44:07.892Z,18.00
2022-10-26T13:46:39.903Z,21.52
2022-10-26T13:49:23.712Z,19.58
2022-10-26T13:51:53.672Z,17.52
2022-10-26T13:54:51.862Z,17.83
2022-10-26T13:57:43.105Z,17.65
2022-10-26T14:00:24.414Z,19.25
2022-10-26T14:02:52.795Z,23.63
2022-10-26T14:05:21.289Z,19.73
2022-10-26T14:07:54.290Z,20.23
2022-10-26T14:10:32.882Z,19.30
2022-10-26T14:13:02.111Z,23.60
2022-10-26T14:15:32.637Z,19.65
2022-10-26T14:18:03.929Z,22.17
2022-10-26T14:20:32.671Z,24.03
2022-10-26T14:23:00.851Z,26.23
2022-10-26T14:25:42.013Z,26.08
2022-10-26T14:28:34.142Z,29.02
2022-10-26T14:31:40.702Z,32.08
2022-10-26T14:34:13.159Z,24.70
2022-10-26T14:36:46.439Z,24.88
2022-10-26T14:39:30.468Z,24.13
2022-10-26T14:42:01.124Z,28.50
2022-10-26T14:44:30.665Z,23.67
2022-10-26T14:46:58.932Z,23.87
2022-10-26T14:49:28.890Z,29.73
2022-10-26T14:52:05.419Z,30.20
2022-10-26T14:54:35.114Z,34.33
2022-10-26T14:57:09.028Z,27.10
2022-10-26T14:59:37.306Z,33.50
2022-10-26T15:02:24.815Z,30.63
2022-10-26T15:36:18.572Z,33.20
2022-10-26T15:38:48.619Z,34.72
2022-10-26T15:41:38.843Z,49.10
2022-10-26T15:44:16.716Z,45.08
2022-10-26T15:46:46.584Z,43.72
2022-10-26T15:49:21.799Z,44.75
2022-10-26T15:51:50.661Z,38.20
2022-10-26T15:54:18.919Z,33.47
2022-10-26T15:56:48.228Z,36.17
2022-10-26T15:59:19.003Z,42.40
2022-10-26T16:01:47.446Z,47.72
2022-10-26T16:04:15.512Z,34.38
2022-10-26T16:06:44.065Z,35.75
2022-10-26T16:09:16.136Z,28.43
2022-10-26T16:11:45.163Z,36.75
2022-10-26T16:14:13.427Z,32.10
2022-10-26T16:16:41.763Z,41.10
2022-10-26T16:19:30.223Z,39.80
2022-10-26T16:21:59.795Z,36.00
2022-10-26T16:24:29.971Z,36.72
2022-10-26T16:26:58.783Z,49.08
2022-10-26T16:29:27.201Z,32.75
2022-10-26T16:31:55.347Z,37.72
2022-10-26T16:34:23.500Z,38.07
2022-10-26T16:36:51.744Z,34.53
2022-10-26T16:39:19.828Z,38.08
2022-10-26T16:41:50.880Z,38.42
2022-10-26T16:44:19.489Z,34.25
2022-10-26T16:46:47.507Z,44.60
2022-10-26T16:49:15.591Z,39.97
2022-10-26T16:51:43.627Z,43.83
2022-10-26T16:54:11.999Z,37.22
2022-10-26T16:56:39.813Z,34.58
2022-10-26T16:59:09.724Z,34.53
2022-10-26T17:01:38.140Z,39.73
2022-10-26T17:04:06.317Z,38.50
2022-10-26T17:06:34.924Z,40.67
2022-10-26T17:09:02.776Z,34.92
2022-10-26T17:11:30.990Z,28.23
2022-10-26T17:13:58.969Z,30.27
2022-10-26T17:16:27.217Z,35.10
2022-10-26T17:18:55.701Z,30.00
2022-10-26T17:21:35.728Z,28.80
2022-10-26T17:24:03.992Z,32.53
2022-10-26T17:26:31.980Z,64.05
2022-10-26T17:29:00.555Z,39.23
2022-10-26T17:31:28.548Z,28.50
2022-10-26T17:33:57.943Z,37.08
2022-10-26T17:36:27.028Z,30.95
2022-10-26T17:38:59.059Z,31.85
2022-10-26T17:41:30.317Z,32.60
2022-10-26T17:43:58.519Z,29.90
2022-10-26T17:46:28.867Z,43.45
2022-10-26T17:48:59.374Z,36.88
2022-10-26T17:51:29.485Z,31.95
2022-10-26T17:53:59.701Z,33.20
2022-10-26T17:56:30.899Z,39.70
2022-10-26T17:59:01.373Z,33.75
2022-10-26T18:01:30.055Z,34.53
2022-10-26T18:03:58.431Z,27.63
2022-10-26T18:06:26.705Z,35.90
2022-10-26T18:08:56.426Z,36.33
2022-10-26T18:11:27.478Z,27.80
2022-10-26T18:13:57.010Z,39.55
2022-10-26T18:16:26.980Z,29.25
2022-10-26T18:19:05.361Z,29.77
2022-10-26T18:21:39.907Z,32.08
2022-10-26T18:24:11.551Z,34.03
2022-10-26T18:26:39.947Z,29.93
2022-10-26T18:29:08.246Z,38.95
2022-10-26T18:31:36.358Z,28.65
2022-10-26T18:34:06.548Z,25.33
2022-10-26T18:36:35.192Z,26.15
2022-10-26T18:39:03.355Z,29.97
2022-10-26T18:41:31.414Z,29.10
2022-10-26T18:44:03.094Z,31.88
2022-10-26T18:46:34.244Z,30.08
2022-10-26T18:49:02.599Z,28.23
2022-10-26T18:51:33.722Z,33.63
2022-10-26T18:54:02.761Z,37.53
2022-10-26T18:56:31.276Z,28.90
2022-10-26T18:59:01.054Z,33.08
2022-10-26T19:01:32.246Z,33.92
2022-10-26T19:04:09.354Z,28.00
2022-10-26T19:06:46.178Z,31.17
2022-10-26T19:09:16.368Z,31.95
2022-10-26T19:11:44.797Z,30.52
2022-10-26T19:14:14.186Z,36.53
2022-10-26T19:16:47.343Z,27.50
2022-10-26T19:19:17.309Z,28.63
2022-10-26T19:21:46.667Z,33.25
2022-10-26T19:24:19.407Z,35.25
2022-10-26T19:26:49.022Z,31.35
2022-10-26T19:29:18.776Z,34.38
2022-10-26T19:31:49.546Z,32.47
2022-10-26T19:34:19.611Z,31.60
2022-10-26T19:36:48.056Z,29.75
2022-10-26T19:39:17.448Z,24.95
2022-10-26T19:41:51.770Z,25.85
2022-10-26T19:44:24.497Z,23.73
2022-10-26T19:46:53.874Z,33.10
2022-10-26T19:49:22.212Z,27.10
2022-10-26T19:51:50.271Z,31.60
2022-10-26T19:54:18.172Z,25.70
2022-10-26T19:56:47.245Z,29.38
2022-10-26T19:59:15.713Z,31.07
2022-10-26T20:01:46.664Z,28.23
2022-10-26T20:04:15.732Z,26.17
2022-10-26T20:06:43.857Z,28.75
2022-10-26T20:11:47.184Z,26.20
2022-10-26T20:14:17.301Z,31.90
2022-10-26T20:16:45.563Z,31.02
2022-10-26T20:19:14.681Z,32.58
2022-10-26T20:21:42.816Z,28.95
2022-10-26T20:24:13.790Z,28.42
2022-10-26T20:26:42.380Z,27.90
2022-10-26T20:29:11.866Z,36.50
2022-10-26T20:31:40.167Z,29.83
2022-10-26T20:34:09.258Z,37.30
2022-10-26T20:36:38.285Z,32.15
2022-10-26T20:39:06.921Z,32.50
2022-10-26T20:41:41.880Z,34.30
2022-10-26T20:44:27.725Z,34.50
2022-10-26T20:46:56.058Z,36.58
2022-10-26T20:49:24.205Z,34.20
2022-10-26T20:52:22.167Z,33.90
2022-10-26T20:55:01.502Z,28.73
2022-10-26T20:57:33.807Z,34.85
2022-10-26T21:00:09.463Z,29.02
2022-10-26T21:02:37.919Z,28.08
2022-10-26T21:05:06.506Z,31.90
2022-10-26T21:07:34.766Z,34.77
2022-10-26T21:10:02.814Z,29.70
2022-10-26T21:12:30.881Z,30.00
2022-10-26T21:14:58.950Z,42.05
2022-10-26T21:17:27.387Z,43.00
2022-10-26T21:19:55.300Z,25.10
2022-10-26T21:22:23.524Z,25.37
2022-10-26T21:24:51.554Z,34.47
2022-10-26T21:27:19.687Z,33.80
2022-10-26T21:29:47.626Z,25.50
2022-10-26T21:32:15.793Z,38.50
2022-10-26T21:34:44.386Z,23.97
2022-10-26T21:37:12.517Z,27.47
2022-10-26T21:39:40.656Z,29.25
2022-10-26T21:42:09.158Z,22.27
2022-10-26T21:44:41.608Z,17.92
2022-10-26T21:47:11.197Z,23.90
2022-10-26T21:52:13.016Z,21.08
2022-10-26T21:54:40.846Z,21.80
2022-10-26T21:57:09.047Z,20.85
2022-10-26T21:59:37.074Z,21.40
2022-10-26T22:02:05.241Z,24.50
2022-10-26T22:04:36.181Z,24.00
2022-10-26T22:07:04.455Z,27.23
2022-10-26T22:09:37.339Z,22.27
2022-10-26T22:12:13.836Z,24.67
2022-10-26T22:14:41.972Z,26.10
2022-10-26T22:17:10.614Z,25.83
2022-10-26T22:19:38.674Z,19.20
2022-10-26T22:22:06.696Z,27.70
2022-10-26T22:24:34.688Z,15.48
2022-10-26T22:27:02.651Z,24.58
2022-10-26T22:29:30.558Z,22.83
2022-10-26T22:31:58.673Z,23.07
2022-10-26T22:34:26.774Z,22.03
2022-10-26T22:36:54.978Z,27.63
2022-10-26T22:39:24.605Z,24.20
2022-10-26T22:41:52.699Z,28.35
2022-10-26T22:44:20.602Z,20.52
2022-10-26T22:46:48.713Z,19.17
2022-10-26T22:49:16.829Z,26.08
2022-10-26T22:51:45.006Z,19.83
2022-10-26T22:54:13.962Z,24.67
2022-10-26T22:56:42.346Z,27.58
2022-10-26T22:59:10.188Z,31.00
2022-10-26T23:01:39.883Z,28.43
2022-10-26T23:04:08.978Z,26.17
2022-10-26T23:06:39.814Z,37.35
2022-10-26T23:09:08.320Z,31.95
2022-10-26T23:11:36.529Z,33.35
2022-10-26T23:14:05.201Z,30.10
2022-10-26T23:16:33.208Z,25.50
2022-10-26T23:19:01.420Z,31.83
2022-10-26T23:21:30.058Z,25.15
2022-10-26T23:23:58.676Z,25.73
2022-10-26T23:26:26.979Z,28.60
2022-10-26T23:28:55.230Z,21.77
2022-10-26T23:31:26.290Z,24.88
2022-10-26T23:33:56.341Z,33.60
2022-10-26T23:36:25.815Z,27.30
2022-10-26T23:38:54.035Z,22.65
2022-10-26T23:41:34.380Z,28.57
2022-10-26T23:44:02.635Z,25.20
2022-10-26T23:46:30.925Z,25.38
2022-10-26T23:49:02.400Z,24.55
2022-10-26T23:51:30.520Z,26.90
2022-10-26T23:53:58.477Z,22.13
2022-10-26T23:56:26.529Z,28.37
2022-10-26T23:58:54.923Z,27.92
